PAV513H LEZL-LECO
Flight info
| Callsign | PAV513H |
|---|---|
| Flight time | N/A |
| Altitude | 24000 |
| Route | HIJ M30 ZMR/N0409F330 N733 DESAT/N0386F250 N733 FORNO |
| Aircraft | C525/L-SDFGRWY/S |
Departure
| Time | 2026-05-01 14:50 |
|---|---|
| Airport | Seville Airport (LEZL) |
Arrival
| Time | N/A |
|---|---|
| Airport | A Coruña Airport (LECO) |
| Time | Latitude | Longitude | Altitude | Speed | Heading |
|---|---|---|---|---|---|
| 2026-05-01 14:35 | 37.42039 | -5.90481 | 81 ft | 0 kts | 269° |
| 2026-05-01 14:43 | 37.42039 | -5.90484 | 81 ft | 1 kts | 269° |
| 2026-05-01 14:43 | 37.42027 | -5.90521 | 80 ft | 8 kts | 203° |
| 2026-05-01 14:44 | 37.42022 | -5.90523 | 80 ft | 8 kts | 197° |
| 2026-05-01 14:44 | 37.42004 | -5.90524 | 80 ft | 9 kts | 180° |
| 2026-05-01 14:44 | 37.41978 | -5.90445 | 80 ft | 13 kts | 91° |
| 2026-05-01 14:45 | 37.41978 | -5.90307 | 83 ft | 17 kts | 90° |
| 2026-05-01 14:45 | 37.41978 | -5.89922 | 84 ft | 26 kts | 89° |
| 2026-05-01 14:45 | 37.41980 | -5.89680 | 86 ft | 29 kts | 89° |
| 2026-05-01 14:46 | 37.41979 | -5.89405 | 86 ft | 33 kts | 89° |
| 2026-05-01 14:46 | 37.41984 | -5.89014 | 86 ft | 16 kts | 88° |
| 2026-05-01 14:46 | 37.41982 | -5.88874 | 87 ft | 15 kts | 90° |
| 2026-05-01 14:47 | 37.41982 | -5.88740 | 88 ft | 15 kts | 88° |
| 2026-05-01 14:47 | 37.41984 | -5.88602 | 90 ft | 16 kts | 91° |
| 2026-05-01 14:47 | 37.41985 | -5.88444 | 91 ft | 18 kts | 89° |
| 2026-05-01 14:48 | 37.41986 | -5.88103 | 96 ft | 20 kts | 90° |
| 2026-05-01 14:48 | 37.41988 | -5.87916 | 98 ft | 22 kts | 88° |
| 2026-05-01 14:48 | 37.41981 | -5.87528 | 102 ft | 20 kts | 104° |
| 2026-05-01 14:49 | 37.41799 | -5.87474 | 103 ft | 14 kts | 263° |
| 2026-05-01 14:49 | 37.41794 | -5.88215 | 93 ft | 104 kts | 272° |
| 2026-05-01 14:50 | 37.41823 | -5.89630 | 634 ft | 127 kts | 268° |
| 2026-05-01 14:50 | 37.41997 | -5.92557 | 2337 ft | 126 kts | 298° |
| 2026-05-01 14:51 | 37.42659 | -5.93271 | 2951 ft | 124 kts | 322° |
| 2026-05-01 14:51 | 37.44075 | -5.94696 | 4072 ft | 133 kts | 315° |
| 2026-05-01 14:52 | 37.45702 | -5.95525 | 5228 ft | 138 kts | 8° |
| 2026-05-01 14:52 | 37.46641 | -5.95303 | 5804 ft | 139 kts | 12° |
| 2026-05-01 14:52 | 37.48533 | -5.94799 | 6835 ft | 142 kts | 12° |
| 2026-05-01 14:53 | 37.49505 | -5.94538 | 7321 ft | 144 kts | 12° |
| 2026-05-01 14:53 | 37.50486 | -5.94274 | 7802 ft | 146 kts | 12° |
| 2026-05-01 14:53 | 37.51487 | -5.94000 | 8289 ft | 147 kts | 12° |
| 2026-05-01 14:53 | 37.52481 | -5.93726 | 8739 ft | 150 kts | 12° |
| 2026-05-01 14:54 | 37.53513 | -5.93438 | 9212 ft | 151 kts | 12° |
| 2026-05-01 14:54 | 37.54532 | -5.93149 | 9661 ft | 153 kts | 12° |
| 2026-05-01 14:54 | 37.55570 | -5.92849 | 10093 ft | 156 kts | 12° |
| 2026-05-01 14:54 | 37.56639 | -5.92536 | 10548 ft | 158 kts | 12° |
| 2026-05-01 14:55 | 37.57698 | -5.92219 | 10984 ft | 159 kts | 12° |
| 2026-05-01 14:55 | 37.58775 | -5.91891 | 11399 ft | 161 kts | 12° |
| 2026-05-01 14:55 | 37.59857 | -5.91562 | 11861 ft | 160 kts | 12° |
| 2026-05-01 14:55 | 37.60955 | -5.91227 | 12235 ft | 165 kts | 12° |
| 2026-05-01 14:56 | 37.62047 | -5.90890 | 12680 ft | 164 kts | 12° |
| 2026-05-01 14:56 | 37.63161 | -5.90543 | 13087 ft | 166 kts | 12° |
| 2026-05-01 14:56 | 37.64274 | -5.90195 | 13504 ft | 166 kts | 11° |
| 2026-05-01 14:56 | 37.65402 | -5.89829 | 13912 ft | 167 kts | 12° |
| 2026-05-01 14:57 | 37.66526 | -5.89458 | 14336 ft | 166 kts | 11° |
| 2026-05-01 14:57 | 37.68758 | -5.89053 | 15102 ft | 158 kts | 329° |
| 2026-05-01 14:57 | 37.69717 | -5.89680 | 15488 ft | 160 kts | 343° |
| 2026-05-01 14:58 | 37.70853 | -5.89586 | 15874 ft | 166 kts | 5° |
| 2026-05-01 14:58 | 37.71993 | -5.89319 | 16257 ft | 168 kts | 7° |
| 2026-05-01 14:58 | 37.73130 | -5.88928 | 16603 ft | 172 kts | 11° |
| 2026-05-01 14:58 | 37.74263 | -5.88484 | 16995 ft | 172 kts | 12° |
| 2026-05-01 14:59 | 37.75383 | -5.88001 | 17354 ft | 174 kts | 18° |
| 2026-05-01 14:59 | 37.76471 | -5.87322 | 17724 ft | 175 kts | 22° |
| 2026-05-01 14:59 | 37.77546 | -5.86597 | 18079 ft | 176 kts | 23° |
| 2026-05-01 14:59 | 37.78625 | -5.85856 | 18415 ft | 177 kts | 22° |
| 2026-05-01 15:00 | 37.80796 | -5.84313 | 19114 ft | 178 kts | 23° |
| 2026-05-01 15:00 | 37.81866 | -5.83541 | 19434 ft | 179 kts | 22° |
| 2026-05-01 15:00 | 37.82943 | -5.82752 | 19754 ft | 180 kts | 22° |
| 2026-05-01 15:01 | 37.84036 | -5.81937 | 20060 ft | 182 kts | 22° |
| 2026-05-01 15:01 | 37.85110 | -5.81122 | 20368 ft | 183 kts | 23° |
| 2026-05-01 15:01 | 37.86199 | -5.80295 | 20694 ft | 183 kts | 22° |
| 2026-05-01 15:01 | 37.87300 | -5.79439 | 20999 ft | 184 kts | 22° |
| 2026-05-01 15:02 | 37.88384 | -5.78583 | 21274 ft | 187 kts | 22° |
| 2026-05-01 15:02 | 37.89124 | -5.77993 | 21513 ft | 185 kts | 23° |
| 2026-05-01 15:02 | 37.90585 | -5.76825 | 21872 ft | 188 kts | 22° |
| 2026-05-01 15:02 | 37.91681 | -5.75941 | 22158 ft | 189 kts | 22° |
| 2026-05-01 15:03 | 37.92784 | -5.75047 | 22445 ft | 190 kts | 22° |
| 2026-05-01 15:03 | 37.93901 | -5.74130 | 22714 ft | 192 kts | 22° |
| 2026-05-01 15:03 | 37.95018 | -5.73197 | 22997 ft | 193 kts | 22° |
| 2026-05-01 15:03 | 37.96140 | -5.72252 | 23251 ft | 195 kts | 22° |
| 2026-05-01 15:04 | 37.97267 | -5.71302 | 23547 ft | 194 kts | 22° |
| 2026-05-01 15:04 | 37.98377 | -5.70360 | 23842 ft | 194 kts | 22° |
| 2026-05-01 15:04 | 37.99513 | -5.69393 | 24055 ft | 198 kts | 23° |
| 2026-05-01 15:04 | 38.00692 | -5.68401 | 24163 ft | 210 kts | 22° |
| 2026-05-01 15:05 | 38.01962 | -5.67353 | 24178 ft | 227 kts | 23° |
| 2026-05-01 15:05 | 38.03331 | -5.66259 | 24175 ft | 244 kts | 23° |
| 2026-05-01 15:05 | 38.04832 | -5.65095 | 24170 ft | 261 kts | 23° |
| 2026-05-01 15:05 | 38.06400 | -5.63783 | 24143 ft | 286 kts | 36° |
| 2026-05-01 15:06 | 38.07762 | -5.61794 | 24165 ft | 303 kts | 41° |
| 2026-05-01 15:06 | 38.09474 | -5.60353 | 24159 ft | 299 kts | 12° |
| 2026-05-01 15:06 | 38.11504 | -5.60058 | 24172 ft | 294 kts | 348° |
| 2026-05-01 15:06 | 38.13568 | -5.60333 | 24153 ft | 304 kts | 345° |
| 2026-05-01 15:07 | 38.15714 | -5.60660 | 24148 ft | 315 kts | 346° |
| 2026-05-01 15:07 | 38.17940 | -5.60934 | 24138 ft | 326 kts | 348° |
| 2026-05-01 15:07 | 38.20236 | -5.61144 | 24133 ft | 336 kts | 349° |
| 2026-05-01 15:07 | 38.22600 | -5.61302 | 24130 ft | 344 kts | 351° |
| 2026-05-01 15:08 | 38.25007 | -5.61421 | 24123 ft | 351 kts | 351° |
| 2026-05-01 15:08 | 38.27490 | -5.61512 | 24115 ft | 357 kts | 352° |
| 2026-05-01 15:08 | 38.29989 | -5.61582 | 24119 ft | 362 kts | 352° |
| 2026-05-01 15:08 | 38.32512 | -5.61637 | 24120 ft | 366 kts | 353° |
| 2026-05-01 15:09 | 38.35067 | -5.61681 | 24118 ft | 370 kts | 353° |
| 2026-05-01 15:09 | 38.37649 | -5.61718 | 24117 ft | 372 kts | 353° |
| 2026-05-01 15:09 | 38.40264 | -5.61750 | 24114 ft | 375 kts | 353° |
| 2026-05-01 15:09 | 38.42870 | -5.61777 | 24115 ft | 377 kts | 353° |
| 2026-05-01 15:10 | 38.45519 | -5.61802 | 24117 ft | 378 kts | 353° |
| 2026-05-01 15:10 | 38.50790 | -5.61846 | 24107 ft | 381 kts | 353° |
| 2026-05-01 15:10 | 38.53458 | -5.61866 | 24107 ft | 382 kts | 353° |
| 2026-05-01 15:11 | 38.56108 | -5.61885 | 24104 ft | 383 kts | 354° |
| 2026-05-01 15:11 | 38.61420 | -5.62169 | 24109 ft | 376 kts | 347° |
| 2026-05-01 15:11 | 38.63971 | -5.62581 | 24102 ft | 372 kts | 346° |
| 2026-05-01 15:12 | 38.66549 | -5.63035 | 24103 ft | 369 kts | 346° |
| 2026-05-01 15:12 | 38.71595 | -5.63940 | 24096 ft | 364 kts | 346° |
| 2026-05-01 15:12 | 38.74074 | -5.64384 | 24092 ft | 363 kts | 346° |
| 2026-05-01 15:13 | 38.81551 | -5.65720 | 24093 ft | 359 kts | 346° |
| 2026-05-01 15:14 | 38.86491 | -5.66601 | 24083 ft | 358 kts | 346° |
| 2026-05-01 15:14 | 38.88925 | -5.67035 | 24084 ft | 357 kts | 346° |
| 2026-05-01 15:14 | 38.93848 | -5.67913 | 24076 ft | 357 kts | 346° |
| 2026-05-01 15:15 | 38.98747 | -5.68787 | 24073 ft | 356 kts | 346° |
| 2026-05-01 15:15 | 39.03661 | -5.69665 | 24068 ft | 356 kts | 346° |
| 2026-05-01 15:16 | 39.08574 | -5.70543 | 24072 ft | 356 kts | 346° |
| 2026-05-01 15:16 | 39.13490 | -5.71423 | 24070 ft | 356 kts | 346° |
| 2026-05-01 15:17 | 39.18355 | -5.72294 | 24081 ft | 356 kts | 346° |
| 2026-05-01 15:18 | 39.25736 | -5.73620 | 24085 ft | 356 kts | 346° |
| 2026-05-01 15:18 | 39.28173 | -5.74058 | 24090 ft | 356 kts | 346° |
| 2026-05-01 15:19 | 39.35554 | -5.75387 | 24095 ft | 357 kts | 346° |
| 2026-05-01 15:19 | 39.40489 | -5.76278 | 24100 ft | 360 kts | 346° |
| 2026-05-01 15:19 | 39.42955 | -5.76724 | 24099 ft | 361 kts | 346° |
| 2026-05-01 15:20 | 39.47945 | -5.77626 | 24104 ft | 364 kts | 346° |
| 2026-05-01 15:20 | 39.50460 | -5.78080 | 24249 ft | 361 kts | 346° |
| 2026-05-01 15:20 | 39.52932 | -5.78525 | 24421 ft | 357 kts | 346° |
| 2026-05-01 15:21 | 39.55356 | -5.78963 | 24607 ft | 354 kts | 346° |
| 2026-05-01 15:21 | 39.57794 | -5.79404 | 24787 ft | 351 kts | 346° |
| 2026-05-01 15:21 | 39.60195 | -5.79839 | 24961 ft | 349 kts | 346° |
| 2026-05-01 15:21 | 39.62603 | -5.80292 | 25066 ft | 347 kts | 344° |
| 2026-05-01 15:22 | 39.67196 | -5.82163 | 25095 ft | 347 kts | 334° |
| 2026-05-01 15:22 | 39.69428 | -5.83306 | 25097 ft | 347 kts | 331° |
| 2026-05-01 15:22 | 39.71652 | -5.84549 | 25089 ft | 349 kts | 330° |
| 2026-05-01 15:23 | 39.73873 | -5.85813 | 25091 ft | 351 kts | 330° |
| 2026-05-01 15:23 | 39.76112 | -5.87091 | 25088 ft | 352 kts | 330° |
| 2026-05-01 15:23 | 39.78386 | -5.88390 | 25088 ft | 354 kts | 330° |
| 2026-05-01 15:23 | 39.80630 | -5.89672 | 25094 ft | 355 kts | 330° |
| 2026-05-01 15:24 | 39.82903 | -5.90970 | 25093 ft | 356 kts | 330° |
| 2026-05-01 15:24 | 39.85162 | -5.92260 | 25093 ft | 357 kts | 330° |
| 2026-05-01 15:24 | 39.87446 | -5.93565 | 25091 ft | 358 kts | 330° |
| 2026-05-01 15:24 | 39.89745 | -5.94878 | 25093 ft | 359 kts | 330° |
| 2026-05-01 15:25 | 39.92023 | -5.96181 | 25090 ft | 359 kts | 330° |
| 2026-05-01 15:25 | 39.94316 | -5.97493 | 25094 ft | 360 kts | 330° |
| 2026-05-01 15:25 | 39.96584 | -5.98790 | 25094 ft | 360 kts | 330° |
| 2026-05-01 15:25 | 39.98889 | -6.00111 | 25094 ft | 360 kts | 330° |
| 2026-05-01 15:26 | 40.01174 | -6.01421 | 25093 ft | 361 kts | 331° |
| 2026-05-01 15:26 | 40.03484 | -6.02745 | 25091 ft | 361 kts | 330° |
| 2026-05-01 15:26 | 40.05781 | -6.04064 | 25090 ft | 362 kts | 330° |
| 2026-05-01 15:26 | 40.08090 | -6.05391 | 25092 ft | 362 kts | 330° |
| 2026-05-01 15:27 | 40.10379 | -6.06706 | 25095 ft | 362 kts | 330° |
| 2026-05-01 15:27 | 40.12716 | -6.08051 | 25089 ft | 363 kts | 330° |
| 2026-05-01 15:27 | 40.14998 | -6.09364 | 25092 ft | 363 kts | 330° |
| 2026-05-01 15:28 | 40.19633 | -6.12036 | 25091 ft | 364 kts | 330° |
| 2026-05-01 15:28 | 40.21976 | -6.13388 | 25096 ft | 364 kts | 330° |
| 2026-05-01 15:28 | 40.24307 | -6.14733 | 25096 ft | 364 kts | 331° |
| 2026-05-01 15:29 | 40.28932 | -6.17407 | 25104 ft | 364 kts | 330° |
| 2026-05-01 15:29 | 40.31228 | -6.18736 | 25107 ft | 364 kts | 330° |
| 2026-05-01 15:29 | 40.35863 | -6.21419 | 25107 ft | 364 kts | 330° |
| 2026-05-01 15:30 | 40.40515 | -6.24121 | 25117 ft | 364 kts | 331° |
| 2026-05-01 15:31 | 40.49774 | -6.29498 | 25119 ft | 365 kts | 330° |
| 2026-05-01 15:31 | 40.54384 | -6.32191 | 25121 ft | 365 kts | 330° |
| 2026-05-01 15:32 | 40.59050 | -6.34917 | 25122 ft | 365 kts | 330° |
| 2026-05-01 15:32 | 40.63697 | -6.37629 | 25122 ft | 365 kts | 330° |
| 2026-05-01 15:33 | 40.70655 | -6.41707 | 25121 ft | 366 kts | 331° |
| 2026-05-01 15:34 | 40.77622 | -6.45794 | 25114 ft | 367 kts | 331° |